sensor_id;sensor_type;location;lat;lon;timestamp;pressure;altitude;pressure_sealevel;temperature;humidity
35908;BME280;22003;50.320;8.054;2023-01-29T01:11:44;100946.41;;;-3.12;96.28
35908;BME280;22003;50.320;8.054;2023-01-29T01:14:10;100962.00;;;-3.28;96.11
35908;BME280;22003;50.320;8.054;2023-01-29T01:16:36;100939.56;;;-3.35;96.38
35908;BME280;22003;50.320;8.054;2023-01-29T01:19:02;100929.25;;;-3.47;96.60
35908;BME280;22003;50.320;8.054;2023-01-29T01:21:28;100941.31;;;-3.45;96.61
35908;BME280;22003;50.320;8.054;2023-01-29T01:23:53;100981.03;;;-3.29;96.51
35908;BME280;22003;50.320;8.054;2023-01-29T01:26:18;100976.59;;;-2.90;94.97
35908;BME280;22003;50.320;8.054;2023-01-29T01:28:43;100983.56;;;-3.07;93.67
35908;BME280;22003;50.320;8.054;2023-01-29T01:31:10;100989.63;;;-3.07;93.99
35908;BME280;22003;50.320;8.054;2023-01-29T01:33:36;100945.56;;;-3.05;93.89
35908;BME280;22003;50.320;8.054;2023-01-29T01:36:02;100977.50;;;-2.94;93.12
35908;BME280;22003;50.320;8.054;2023-01-29T01:38:28;100943.88;;;-3.31;93.86
35908;BME280;22003;50.320;8.054;2023-01-29T01:40:53;100941.31;;;-3.35;94.40
35908;BME280;22003;50.320;8.054;2023-01-29T01:43:19;100954.28;;;-3.51;94.38
35908;BME280;22003;50.320;8.054;2023-01-29T01:45:44;100879.22;;;-4.06;95.23
35908;BME280;22003;50.320;8.054;2023-01-29T01:48:20;100965.53;;;-3.49;96.22
35908;BME280;22003;50.320;8.054;2023-01-29T01:50:51;100981.03;;;-3.27;97.12
35908;BME280;22003;50.320;8.054;2023-01-29T01:53:21;100909.25;;;-3.05;95.73
35908;BME280;22003;50.320;8.054;2023-01-29T01:55:53;100951.59;;;-3.06;94.26
35908;BME280;22003;50.320;8.054;2023-01-29T01:58:25;100902.47;;;-3.38;94.27
35908;BME280;22003;50.320;8.054;2023-01-29T02:00:52;100867.97;;;-3.79;94.64
35908;BME280;22003;50.320;8.054;2023-01-29T02:03:20;100952.53;;;-3.50;95.28
35908;BME280;22003;50.320;8.054;2023-01-29T02:06:05;100916.31;;;-3.59;96.13
35908;BME280;22003;50.320;8.054;2023-01-29T02:08:57;100956.88;;;-3.58;95.67
35908;BME280;22003;50.320;8.054;2023-01-29T02:11:42;100961.19;;;-3.62;95.90
35908;BME280;22003;50.320;8.054;2023-01-29T02:14:08;100995.72;;;-3.67;96.43
35908;BME280;22003;50.320;8.054;2023-01-29T02:16:35;100985.34;;;-3.89;96.85
35908;BME280;22003;50.320;8.054;2023-01-29T02:19:00;100969.84;;;-4.16;96.99
35908;BME280;22003;50.320;8.054;2023-01-29T02:21:51;100974.09;;;-4.37;97.37
35908;BME280;22003;50.320;8.054;2023-01-29T02:24:39;101025.91;;;-4.11;98.46
35908;BME280;22003;50.320;8.054;2023-01-29T02:30:36;101000.84;;;-4.30;99.48
35908;BME280;22003;50.320;8.054;2023-01-29T02:36:18;100985.38;;;-4.10;99.43
35908;BME280;22003;50.320;8.054;2023-01-29T02:39:16;101028.53;;;-3.82;100.00
35908;BME280;22003;50.320;8.054;2023-01-29T02:41:57;101000.91;;;-3.92;100.00
35908;BME280;22003;50.320;8.054;2023-01-29T02:44:37;101000.03;;;-3.91;100.00
35908;BME280;22003;50.320;8.054;2023-01-29T02:47:33;101020.78;;;-3.59;100.00
35908;BME280;22003;50.320;8.054;2023-01-29T02:50:17;100915.47;;;-4.04;100.00
35908;BME280;22003;50.320;8.054;2023-01-29T02:52:55;101002.63;;;-3.42;100.00
35908;BME280;22003;50.320;8.054;2023-01-29T03:00:45;100998.25;;;-3.12;100.00
35908;BME280;22003;50.320;8.054;2023-01-29T03:03:16;100932.69;;;-3.57;99.54
35908;BME280;22003;50.320;8.054;2023-01-29T03:05:55;100984.47;;;-3.25;100.00
35908;BME280;22003;50.320;8.054;2023-01-29T03:08:34;100937.88;;;-3.63;100.00
35908;BME280;22003;50.320;8.054;2023-01-29T03:11:05;100992.25;;;-3.36;100.00
35908;BME280;22003;50.320;8.054;2023-01-29T03:18:53;100939.63;;;-3.62;100.00
35908;BME280;22003;50.320;8.054;2023-01-29T03:21:29;100935.28;;;-3.66;100.00
35908;BME280;22003;50.320;8.054;2023-01-29T03:24:15;100952.56;;;-3.55;100.00
35908;BME280;22003;50.320;8.054;2023-01-29T03:27:04;100951.72;;;-3.55;100.00
35908;BME280;22003;50.320;8.054;2023-01-29T03:29:50;100934.47;;;-3.88;100.00
35908;BME280;22003;50.320;8.054;2023-01-29T03:32:36;100960.34;;;-3.96;100.00
35908;BME280;22003;50.320;8.054;2023-01-29T03:35:04;100962.91;;;-4.11;100.00
35908;BME280;22003;50.320;8.054;2023-01-29T03:37:45;100956.00;;;-4.17;100.00
35908;BME280;22003;50.320;8.054;2023-01-29T03:40:12;101000.06;;;-3.94;100.00
35908;BME280;22003;50.320;8.054;2023-01-29T03:45:33;100969.81;;;-4.07;100.00
35908;BME280;22003;50.320;8.054;2023-01-29T03:50:55;100959.47;;;-4.12;100.00
35908;BME280;22003;50.320;8.054;2023-01-29T03:53:46;100980.19;;;-3.89;100.00
35908;BME280;22003;50.320;8.054;2023-01-29T03:56:54;101004.34;;;-4.05;100.00
35908;BME280;22003;50.320;8.054;2023-01-29T03:59:35;100972.38;;;-4.26;100.00
35908;BME280;22003;50.320;8.054;2023-01-29T04:02:07;100975.84;;;-4.25;100.00
35908;BME280;22003;50.320;8.054;2023-01-29T04:04:35;100982.75;;;-4.16;100.00
35908;BME280;22003;50.320;8.054;2023-01-29T04:07:13;100943.06;;;-4.14;100.00
35908;BME280;22003;50.320;8.054;2023-01-29T04:09:50;100969.81;;;-4.01;100.00
35908;BME280;22003;50.320;8.054;2023-01-29T04:12:19;100943.91;;;-4.29;100.00
35908;BME280;22003;50.320;8.054;2023-01-29T04:14:46;100994.00;;;-4.05;100.00
35908;BME280;22003;50.320;8.054;2023-01-29T04:17:17;100989.63;;;-4.17;100.00
35908;BME280;22003;50.320;8.054;2023-01-29T04:19:44;100933.56;;;-4.44;100.00
35908;BME280;22003;50.320;8.054;2023-01-29T04:22:15;100886.94;;;-4.71;100.00
35908;BME280;22003;50.320;8.054;2023-01-29T04:24:43;100991.38;;;-4.07;100.00
35908;BME280;22003;50.320;8.054;2023-01-29T04:27:13;100999.19;;;-3.76;100.00
35908;BME280;22003;50.320;8.054;2023-01-29T04:32:39;101009.56;;;-3.65;100.00
35908;BME280;22003;50.320;8.054;2023-01-29T04:40:42;101006.97;;;-3.72;100.00
35908;BME280;22003;50.320;8.054;2023-01-29T04:51:15;100992.25;;;-3.95;100.00
35908;BME280;22003;50.320;8.054;2023-01-29T04:53:54;100944.78;;;-4.23;100.00
35908;BME280;22003;50.320;8.054;2023-01-29T04:56:28;100933.59;;;-4.19;100.00
35908;BME280;22003;50.320;8.054;2023-01-29T04:59:13;100925.84;;;-4.16;100.00
35908;BME280;22003;50.320;8.054;2023-01-29T05:01:40;100906.88;;;-3.94;100.00
35908;BME280;22003;50.320;8.054;2023-01-29T05:04:12;100908.56;;;-3.90;100.00
35908;BME280;22003;50.320;8.054;2023-01-29T05:06:38;100937.88;;;-3.54;100.00
35908;BME280;22003;50.320;8.054;2023-01-29T05:09:03;100875.78;;;-3.97;99.17
35908;BME280;22003;50.320;8.054;2023-01-29T05:11:31;100961.19;;;-3.51;99.26
35908;BME280;22003;50.320;8.054;2023-01-29T05:13:57;100924.97;;;-3.69;99.43
35908;BME280;22003;50.320;8.054;2023-01-29T05:16:28;100894.75;;;-3.80;100.00
35908;BME280;22003;50.320;8.054;2023-01-29T05:19:11;100971.53;;;-3.30;100.00
35908;BME280;22003;50.320;8.054;2023-01-29T05:21:39;100926.69;;;-3.90;99.85
35908;BME280;22003;50.320;8.054;2023-01-29T05:24:06;100978.47;;;-3.64;100.00
35908;BME280;22003;50.320;8.054;2023-01-29T05:26:32;100891.31;;;-4.17;100.00
35908;BME280;22003;50.320;8.054;2023-01-29T05:29:16;100968.13;;;-3.72;100.00
35908;BME280;22003;50.320;8.054;2023-01-29T05:31:43;100959.47;;;-3.90;100.00
35908;BME280;22003;50.320;8.054;2023-01-29T05:34:08;100954.28;;;-3.74;100.00
35908;BME280;22003;50.320;8.054;2023-01-29T05:36:33;100917.19;;;-4.02;100.00
35908;BME280;22003;50.320;8.054;2023-01-29T05:38:58;100937.03;;;-4.02;100.00
35908;BME280;22003;50.320;8.054;2023-01-29T05:41:24;100897.34;;;-4.26;100.00
35908;BME280;22003;50.320;8.054;2023-01-29T05:43:49;100939.63;;;-4.07;100.00
35908;BME280;22003;50.320;8.054;2023-01-29T05:46:15;100980.19;;;-3.90;100.00
35908;BME280;22003;50.320;8.054;2023-01-29T05:48:40;100952.59;;;-3.99;100.00
35908;BME280;22003;50.320;8.054;2023-01-29T05:51:06;100815.41;;;-4.66;100.00
35908;BME280;22003;50.320;8.054;2023-01-29T05:53:31;100939.63;;;-3.84;100.00
35908;BME280;22003;50.320;8.054;2023-01-29T05:55:59;100964.66;;;-3.43;100.00
35908;BME280;22003;50.320;8.054;2023-01-29T05:58:25;100927.53;;;-3.73;100.00
35908;BME280;22003;50.320;8.054;2023-01-29T06:00:50;100950.84;;;-3.48;100.00
35908;BME280;22003;50.320;8.054;2023-01-29T06:03:15;100931.84;;;-3.59;100.00
35908;BME280;22003;50.320;8.054;2023-01-29T06:05:41;100868.00;;;-3.91;100.00
35908;BME280;22003;50.320;8.054;2023-01-29T06:08:07;100940.47;;;-3.48;100.00
35908;BME280;22003;50.320;8.054;2023-01-29T06:10:32;100895.59;;;-3.78;100.00
35908;BME280;22003;50.320;8.054;2023-01-29T06:12:57;100922.34;;;-3.48;100.00
35908;BME280;22003;50.320;8.054;2023-01-29T06:15:23;100951.66;;;-3.25;100.00
35908;BME280;22003;50.320;8.054;2023-01-29T06:17:52;100943.81;;;-3.06;100.00
35908;BME280;22003;50.320;8.054;2023-01-29T06:20:26;100906.69;;;-3.10;98.29
35908;BME280;22003;50.320;8.054;2023-01-29T06:22:51;100909.25;;;-3.07;98.22
35908;BME280;22003;50.320;8.054;2023-01-29T06:25:17;100846.31;;;-3.38;97.60
35908;BME280;22003;50.320;8.054;2023-01-29T06:27:42;100888.63;;;-3.42;97.28
35908;BME280;22003;50.320;8.054;2023-01-29T06:30:08;100888.63;;;-3.36;98.71
35908;BME280;22003;50.320;8.054;2023-01-29T06:32:33;100885.19;;;-3.41;99.18
35908;BME280;22003;50.320;8.054;2023-01-29T06:34:58;100771.41;;;-4.17;100.00
35908;BME280;22003;50.320;8.054;2023-01-29T06:37:23;100908.50;;;-3.36;100.00
35908;BME280;22003;50.320;8.054;2023-01-29T06:39:49;100849.84;;;-3.65;100.00
35908;BME280;22003;50.320;8.054;2023-01-29T06:42:14;100930.91;;;-3.23;100.00
35908;BME280;22003;50.320;8.054;2023-01-29T06:44:39;100922.25;;;-3.22;100.00
35908;BME280;22003;50.320;8.054;2023-01-29T06:47:05;100942.94;;;-3.04;99.75
35908;BME280;22003;50.320;8.054;2023-01-29T06:49:30;100859.34;;;-3.68;99.37
35908;BME280;22003;50.320;8.054;2023-01-29T06:51:55;100956.00;;;-3.42;99.78
35908;BME280;22003;50.320;8.054;2023-01-29T06:54:21;100887.00;;;-3.86;100.00
35908;BME280;22003;50.320;8.054;2023-01-29T06:56:46;100941.31;;;-3.45;100.00
35908;BME280;22003;50.320;8.054;2023-01-29T06:59:11;100945.63;;;-3.42;100.00
35908;BME280;22003;50.320;8.054;2023-01-29T07:01:40;100974.09;;;-3.22;100.00
35908;BME280;22003;50.320;8.054;2023-01-29T07:04:08;100933.56;;;-3.43;100.00
35908;BME280;22003;50.320;8.054;2023-01-29T07:06:34;100963.75;;;-3.25;100.00
35908;BME280;22003;50.320;8.054;2023-01-29T07:08:59;100946.44;;;-3.23;100.00
35908;BME280;22003;50.320;8.054;2023-01-29T07:11:25;100971.53;;;-3.25;99.73
35908;BME280;22003;50.320;8.054;2023-01-29T07:13:50;100981.88;;;-3.30;100.00
35908;BME280;22003;50.320;8.054;2023-01-29T07:16:15;100946.47;;;-3.34;100.00
35908;BME280;22003;50.320;8.054;2023-01-29T07:18:46;100909.38;;;-3.56;100.00
35908;BME280;22003;50.320;8.054;2023-01-29T07:21:12;100940.44;;;-3.33;100.00
35908;BME280;22003;50.320;8.054;2023-01-29T07:23:37;100949.88;;;-3.16;100.00
35908;BME280;22003;50.320;8.054;2023-01-29T07:26:04;100969.75;;;-3.09;100.00
35908;BME280;22003;50.320;8.054;2023-01-29T07:28:29;100955.09;;;-3.20;100.00
35908;BME280;22003;50.320;8.054;2023-01-29T07:30:58;100941.28;;;-3.26;100.00
35908;BME280;22003;50.320;8.054;2023-01-29T07:33:24;100970.56;;;-2.90;100.00
35908;BME280;22003;50.320;8.054;2023-01-29T07:35:49;100949.84;;;-2.94;100.00
35908;BME280;22003;50.320;8.054;2023-01-29T07:38:14;100904.06;;;-3.02;100.00
35908;BME280;22003;50.320;8.054;2023-01-29T07:40:40;100946.28;;;-2.79;100.00
35908;BME280;22003;50.320;8.054;2023-01-29T07:43:06;100982.50;;;-2.48;98.68
35908;BME280;22003;50.320;8.054;2023-01-29T07:45:33;100982.41;;;-2.31;98.26
35908;BME280;22003;50.320;8.054;2023-01-29T07:47:59;100950.56;;;-2.64;97.52
35908;BME280;22003;50.320;8.054;2023-01-29T07:50:25;100975.34;;;-2.09;95.49
35908;BME280;22003;50.320;8.054;2023-01-29T07:52:53;100864.88;;;-2.52;92.18
35908;BME280;22003;50.320;8.054;2023-01-29T07:55:18;100979.66;;;-2.05;91.34
35908;BME280;22003;50.320;8.054;2023-01-29T07:57:43;100953.66;;;-2.02;89.36
35908;BME280;22003;50.320;8.054;2023-01-29T08:00:09;100953.75;;;-2.15;88.09
35908;BME280;22003;50.320;8.054;2023-01-29T08:02:35;100864.09;;;-2.64;87.55
35908;BME280;22003;50.320;8.054;2023-01-29T08:05:01;100996.97;;;-2.12;87.33
35908;BME280;22003;50.320;8.054;2023-01-29T08:07:26;100901.16;;;-2.47;87.80
35908;BME280;22003;50.320;8.054;2023-01-29T08:09:51;100956.44;;;-2.31;88.64
35908;BME280;22003;50.320;8.054;2023-01-29T08:12:17;100983.88;;;-1.92;88.08
35908;BME280;22003;50.320;8.054;2023-01-29T08:14:42;100995.97;;;-1.87;87.72
35908;BME280;22003;50.320;8.054;2023-01-29T08:17:09;100950.31;;;-2.20;88.45
35908;BME280;22003;50.320;8.054;2023-01-29T08:19:35;100910.50;;;-2.19;88.93
35908;BME280;22003;50.320;8.054;2023-01-29T08:22:00;100983.44;;;-1.37;86.38
35908;BME280;22003;50.320;8.054;2023-01-29T08:24:25;100924.91;;;-1.84;86.05
35908;BME280;22003;50.320;8.054;2023-01-29T08:26:50;100880.16;;;-2.14;86.04
35908;BME280;22003;50.320;8.054;2023-01-29T08:29:16;100883.50;;;-1.98;85.05
35908;BME280;22003;50.320;8.054;2023-01-29T08:31:41;100947.03;;;-1.40;85.06
35908;BME280;22003;50.320;8.054;2023-01-29T08:34:06;100960.81;;;-1.27;83.34
35908;BME280;22003;50.320;8.054;2023-01-29T08:36:31;100929.03;;;-1.55;83.88
35908;BME280;22003;50.320;8.054;2023-01-29T08:38:57;100960.56;;;-1.98;89.08
35908;BME280;22003;50.320;8.054;2023-01-29T08:41:22;100958.06;;;-2.17;92.86
35908;BME280;22003;50.320;8.054;2023-01-29T08:43:47;101021.75;;;-1.64;93.19
35908;BME280;22003;50.320;8.054;2023-01-29T08:46:13;100996.44;;;-1.40;87.50
35908;BME280;22003;50.320;8.054;2023-01-29T08:48:38;100999.00;;;-1.36;86.12
35908;BME280;22003;50.320;8.054;2023-01-29T08:51:04;100999.84;;;-1.32;85.45
35908;BME280;22003;50.320;8.054;2023-01-29T08:53:30;100910.06;;;-1.65;85.39
35908;BME280;22003;50.320;8.054;2023-01-29T08:55:55;101004.78;;;-1.08;83.45
35908;BME280;22003;50.320;8.054;2023-01-29T08:58:20;100989.22;;;-1.12;83.13
35908;BME280;22003;50.320;8.054;2023-01-29T09:00:46;100991.13;;;-1.28;83.57
35908;BME280;22003;50.320;8.054;2023-01-29T09:03:11;100989.38;;;-1.26;84.61
35908;BME280;22003;50.320;8.054;2023-01-29T09:05:37;100829.25;;;-2.30;83.53
35908;BME280;22003;50.320;8.054;2023-01-29T09:08:04;100961.34;;;-1.92;83.77
35908;BME280;22003;50.320;8.054;2023-01-29T09:10:30;101016.75;;;-1.90;84.71
35908;BME280;22003;50.320;8.054;2023-01-29T09:12:55;100921.72;;;-2.18;85.65
35908;BME280;22003;50.320;8.054;2023-01-29T09:15:20;101011.00;;;-1.22;85.30
35908;BME280;22003;50.320;8.054;2023-01-29T09:17:45;100972.28;;;-1.51;84.04
35908;BME280;22003;50.320;8.054;2023-01-29T09:20:11;101031.06;;;-1.35;83.44
35908;BME280;22003;50.320;8.054;2023-01-29T09:22:36;101017.94;;;-1.21;83.03
35908;BME280;22003;50.320;8.054;2023-01-29T09:25:02;101018.59;;;-0.99;82.74
35908;BME280;22003;50.320;8.054;2023-01-29T09:27:27;101015.44;;;-1.32;82.80
35908;BME280;22003;50.320;8.054;2023-01-29T09:29:52;101029.34;;;-1.36;84.02
35908;BME280;22003;50.320;8.054;2023-01-29T09:32:18;101033.63;;;-1.34;84.85
35908;BME280;22003;50.320;8.054;2023-01-29T09:34:43;101034.47;;;-1.30;84.31
35908;BME280;22003;50.320;8.054;2023-01-29T09:37:08;101041.25;;;-1.14;84.25
35908;BME280;22003;50.320;8.054;2023-01-29T09:39:33;100981.97;;;-1.70;84.36
35908;BME280;22003;50.320;8.054;2023-01-29T09:42:19;101041.44;;;-1.35;83.61
35908;BME280;22003;50.320;8.054;2023-01-29T09:47:36;100963.72;;;-1.63;85.54
35908;BME280;22003;50.320;8.054;2023-01-29T09:50:05;101034.84;;;-0.81;83.16
35908;BME280;22003;50.320;8.054;2023-01-29T09:52:39;101042.50;;;-0.67;81.30
35908;BME280;22003;50.320;8.054;2023-01-29T09:55:22;100930.53;;;-1.35;81.57
35908;BME280;22003;50.320;8.054;2023-01-29T09:57:52;101040.47;;;-0.40;80.82
35908;BME280;22003;50.320;8.054;2023-01-29T10:00:47;101005.00;;;-0.50;80.01
35908;BME280;22003;50.320;8.054;2023-01-29T10:06:35;100980.38;;;-0.25;79.84
35908;BME280;22003;50.320;8.054;2023-01-29T10:23:23;100900.06;;;0.03;76.70
35908;BME280;22003;50.320;8.054;2023-01-29T10:25:50;100938.25;;;0.06;76.39
35908;BME280;22003;50.320;8.054;2023-01-29T10:28:25;100945.88;;;0.16;77.27
35908;BME280;22003;50.320;8.054;2023-01-29T10:30:59;100879.97;;;0.10;78.35
35908;BME280;22003;50.320;8.054;2023-01-29T10:33:36;100937.75;;;0.33;78.20
35908;BME280;22003;50.320;8.054;2023-01-29T10:36:07;100939.81;;;0.67;77.68
35908;BME280;22003;50.320;8.054;2023-01-29T10:38:48;100931.34;;;1.00;75.43
35908;BME280;22003;50.320;8.054;2023-01-29T10:57:25;100882.13;;;0.82;74.82
35908;BME280;22003;50.320;8.054;2023-01-29T11:00:01;100901.97;;;1.31;76.17
35908;BME280;22003;50.320;8.054;2023-01-29T11:02:32;100897.63;;;1.31;76.50
35908;BME280;22003;50.320;8.054;2023-01-29T11:04:57;100891.44;;;0.94;74.00
35908;BME280;22003;50.320;8.054;2023-01-29T11:07:23;100886.00;;;1.04;73.03
35908;BME280;22003;50.320;8.054;2023-01-29T11:10:02;100814.16;;;0.46;73.96
35908;BME280;22003;50.320;8.054;2023-01-29T11:12:32;100888.31;;;0.30;75.24
35908;BME280;22003;50.320;8.054;2023-01-29T11:15:18;100895.25;;;0.31;77.12
35908;BME280;22003;50.320;8.054;2023-01-29T11:18:06;100885.31;;;0.51;75.60
35908;BME280;22003;50.320;8.054;2023-01-29T11:20:35;100812.66;;;0.35;75.08
35908;BME280;22003;50.320;8.054;2023-01-29T11:23:00;100881.31;;;0.34;75.54
35908;BME280;22003;50.320;8.054;2023-01-29T11:25:26;100817.16;;;-0.24;76.18
35908;BME280;22003;50.320;8.054;2023-01-29T11:27:58;100875.41;;;0.24;76.70
35908;BME280;22003;50.320;8.054;2023-01-29T11:30:31;100795.97;;;-0.56;77.47
35908;BME280;22003;50.320;8.054;2023-01-29T11:35:29;100843.19;;;0.26;77.71
35908;BME280;22003;50.320;8.054;2023-01-29T11:38:14;100851.59;;;0.42;77.19
35908;BME280;22003;50.320;8.054;2023-01-29T11:40:43;100852.03;;;0.64;77.11
35908;BME280;22003;50.320;8.054;2023-01-29T11:45:54;100842.16;;;1.20;75.05
35908;BME280;22003;50.320;8.054;2023-01-29T11:48:24;100833.47;;;1.58;73.26
35908;BME280;22003;50.320;8.054;2023-01-29T11:50:54;100825.75;;;1.88;72.76
35908;BME280;22003;50.320;8.054;2023-01-29T11:53:42;100810.03;;;2.24;69.90
35908;BME280;22003;50.320;8.054;2023-01-29T11:56:24;100764.50;;;1.66;71.05
35908;BME280;22003;50.320;8.054;2023-01-29T11:58:53;100815.44;;;2.50;68.80
35908;BME280;22003;50.320;8.054;2023-01-29T12:01:29;100809.63;;;2.06;70.57
35908;BME280;22003;50.320;8.054;2023-01-29T12:03:54;100813.75;;;2.15;71.70
35908;BME280;22003;50.320;8.054;2023-01-29T12:06:35;100797.69;;;1.96;71.37
35908;BME280;22003;50.320;8.054;2023-01-29T12:09:08;100741.41;;;1.50;71.59
35908;BME280;22003;50.320;8.054;2023-01-29T12:11:35;100799.56;;;1.91;72.29
35908;BME280;22003;50.320;8.054;2023-01-29T12:14:02;100797.78;;;1.57;72.71
35908;BME280;22003;50.320;8.054;2023-01-29T12:16:35;100793.22;;;1.30;71.95
35908;BME280;22003;50.320;8.054;2023-01-29T12:19:16;100714.72;;;1.02;72.68
35908;BME280;22003;50.320;8.054;2023-01-29T12:21:59;100791.25;;;1.75;72.61
35908;BME280;22003;50.320;8.054;2023-01-29T12:24:53;100737.91;;;1.84;71.84
35908;BME280;22003;50.320;8.054;2023-01-29T12:27:33;100763.69;;;1.64;71.60
35908;BME280;22003;50.320;8.054;2023-01-29T12:33:00;100749.19;;;2.19;71.70
35908;BME280;22003;50.320;8.054;2023-01-29T12:35:31;100700.66;;;1.76;70.84
35908;BME280;22003;50.320;8.054;2023-01-29T12:38:02;100739.69;;;2.15;71.37
35908;BME280;22003;50.320;8.054;2023-01-29T12:40:32;100670.38;;;1.36;72.07
35908;BME280;22003;50.320;8.054;2023-01-29T12:43:10;100729.91;;;1.57;71.28
35908;BME280;22003;50.320;8.054;2023-01-29T12:45:38;100735.38;;;1.81;70.84
35908;BME280;22003;50.320;8.054;2023-01-29T12:48:10;100734.09;;;1.63;71.68
35908;BME280;22003;50.320;8.054;2023-01-29T12:50:38;100602.69;;;0.94;70.90
35908;BME280;22003;50.320;8.054;2023-01-29T12:53:24;100713.09;;;1.32;70.81
35908;BME280;22003;50.320;8.054;2023-01-29T12:56:39;100723.44;;;1.37;72.33
35908;BME280;22003;50.320;8.054;2023-01-29T12:59:20;100711.19;;;1.40;71.62
35908;BME280;22003;50.320;8.054;2023-01-29T13:01:52;100721.84;;;1.31;72.10
35908;BME280;22003;50.320;8.054;2023-01-29T13:04:43;100713.16;;;1.30;72.68
35908;BME280;22003;50.320;8.054;2023-01-29T13:07:16;100699.31;;;1.27;72.56
35908;BME280;22003;50.320;8.054;2023-01-29T13:09:47;100696.66;;;0.93;73.31
35908;BME280;22003;50.320;8.054;2023-01-29T13:12:16;100698.59;;;0.44;74.68
35908;BME280;22003;50.320;8.054;2023-01-29T13:19:57;100647.75;;;0.25;74.79
35908;BME280;22003;50.320;8.054;2023-01-29T13:22:25;100637.56;;;0.14;75.92
35908;BME280;22003;50.320;8.054;2023-01-29T13:24:52;100711.03;;;0.73;74.79
35908;BME280;22003;50.320;8.054;2023-01-29T13:27:24;100690.88;;;0.80;74.22
35908;BME280;22003;50.320;8.054;2023-01-29T13:29:50;100699.59;;;0.77;74.46
35908;BME280;22003;50.320;8.054;2023-01-29T13:32:34;100695.00;;;0.89;73.84
35908;BME280;22003;50.320;8.054;2023-01-29T13:35:03;100694.53;;;0.31;74.70
35908;BME280;22003;50.320;8.054;2023-01-29T13:37:36;100693.50;;;0.40;77.00
35908;BME280;22003;50.320;8.054;2023-01-29T13:40:06;100707.53;;;0.34;76.64
35908;BME280;22003;50.320;8.054;2023-01-29T13:42:38;100698.22;;;0.22;76.87
35908;BME280;22003;50.320;8.054;2023-01-29T13:45:06;100699.06;;;0.23;76.64
35908;BME280;22003;50.320;8.054;2023-01-29T13:47:35;100691.31;;;0.20;76.74
35908;BME280;22003;50.320;8.054;2023-01-29T13:52:37;100700.56;;;0.33;75.33
35908;BME280;22003;50.320;8.054;2023-01-29T14:00:46;100697.63;;;0.08;74.71
35908;BME280;22003;50.320;8.054;2023-01-29T14:05:58;100664.56;;;0.12;74.48
35908;BME280;22003;50.320;8.054;2023-01-29T14:13:43;100614.41;;;0.01;74.76
35908;BME280;22003;50.320;8.054;2023-01-29T14:18:35;100573.19;;;-0.22;75.27
35908;BME280;22003;50.320;8.054;2023-01-29T14:21:26;100655.59;;;0.25;75.29
35908;BME280;22003;50.320;8.054;2023-01-29T14:24:07;100607.09;;;0.18;75.20
35908;BME280;22003;50.320;8.054;2023-01-29T14:26:39;100659.56;;;0.41;74.70
35908;BME280;22003;50.320;8.054;2023-01-29T14:31:58;100636.53;;;0.60;74.65
35908;BME280;22003;50.320;8.054;2023-01-29T14:34:28;100639.44;;;0.48;75.12
35908;BME280;22003;50.320;8.054;2023-01-29T14:36:57;100589.56;;;0.24;75.06
35908;BME280;22003;50.320;8.054;2023-01-29T14:39:37;100636.06;;;0.43;74.82
35908;BME280;22003;50.320;8.054;2023-01-29T14:49:58;100567.28;;;0.11;76.44
35908;BME280;22003;50.320;8.054;2023-01-29T14:52:28;100625.97;;;0.66;74.81
35908;BME280;22003;50.320;8.054;2023-01-29T14:54:59;100625.25;;;0.60;74.20
35908;BME280;22003;50.320;8.054;2023-01-29T14:57:25;100621.75;;;0.61;74.26
35908;BME280;22003;50.320;8.054;2023-01-29T15:00:06;100610.38;;;0.26;75.51
35908;BME280;22003;50.320;8.054;2023-01-29T15:02:42;100612.75;;;0.37;75.92
35908;BME280;22003;50.320;8.054;2023-01-29T15:05:15;100608.53;;;0.31;76.33
35908;BME280;22003;50.320;8.054;2023-01-29T15:07:55;100600.19;;;0.17;76.94
35908;BME280;22003;50.320;8.054;2023-01-29T15:10:32;100554.25;;;-0.29;77.62
35908;BME280;22003;50.320;8.054;2023-01-29T15:13:12;100592.69;;;0.40;76.22
35908;BME280;22003;50.320;8.054;2023-01-29T15:15:46;100591.13;;;0.32;76.14
35908;BME280;22003;50.320;8.054;2023-01-29T15:18:18;100592.19;;;0.24;76.16
35908;BME280;22003;50.320;8.054;2023-01-29T15:20:45;100572.50;;;0.11;76.76
35908;BME280;22003;50.320;8.054;2023-01-29T15:23:28;100559.59;;;0.05;77.50
35908;BME280;22003;50.320;8.054;2023-01-29T15:26:00;100584.28;;;0.28;76.64
35908;BME280;22003;50.320;8.054;2023-01-29T15:28:32;100529.06;;;-0.29;76.65
35908;BME280;22003;50.320;8.054;2023-01-29T15:31:00;100483.75;;;-0.60;77.10
35908;BME280;22003;50.320;8.054;2023-01-29T15:33:29;100581.81;;;-0.19;77.51
35908;BME280;22003;50.320;8.054;2023-01-29T15:36:02;100585.75;;;-0.41;79.16
35908;BME280;22003;50.320;8.054;2023-01-29T15:38:29;100578.66;;;-0.35;80.01
35908;BME280;22003;50.320;8.054;2023-01-29T15:40:59;100574.19;;;-0.28;78.62
35908;BME280;22003;50.320;8.054;2023-01-29T15:43:30;100573.78;;;-0.51;79.91
35908;BME280;22003;50.320;8.054;2023-01-29T15:46:01;100588.34;;;-0.41;79.14
35908;BME280;22003;50.320;8.054;2023-01-29T15:48:41;100585.63;;;-0.35;79.10
35908;BME280;22003;50.320;8.054;2023-01-29T15:51:11;100579.31;;;-0.68;79.14
35908;BME280;22003;50.320;8.054;2023-01-29T15:53:44;100526.94;;;-0.96;80.79
35908;BME280;22003;50.320;8.054;2023-01-29T15:56:16;100592.50;;;-0.79;81.04
35908;BME280;22003;50.320;8.054;2023-01-29T15:58:45;100594.59;;;-0.98;82.85
35908;BME280;22003;50.320;8.054;2023-01-29T16:01:12;100506.44;;;-1.64;83.53
35908;BME280;22003;50.320;8.054;2023-01-29T16:03:38;100582.59;;;-1.59;84.43
35908;BME280;22003;50.320;8.054;2023-01-29T16:06:03;100605.22;;;-1.69;85.85
35908;BME280;22003;50.320;8.054;2023-01-29T16:08:31;100605.09;;;-1.58;86.77
35908;BME280;22003;50.320;8.054;2023-01-29T16:10:58;100615.19;;;-1.40;86.10
35908;BME280;22003;50.320;8.054;2023-01-29T16:13:25;100617.00;;;-1.45;86.80
35908;BME280;22003;50.320;8.054;2023-01-29T16:16:24;100613.22;;;-1.24;86.79
35908;BME280;22003;50.320;8.054;2023-01-29T16:18:48;100525.63;;;-2.33;85.94